createdAt,value
2023-05-03T00:02:40.500Z,90.16
2023-05-03T00:05:26.445Z,90.10
2023-05-03T00:08:11.668Z,91.58
2023-05-03T00:11:00.564Z,92.00
2023-05-03T00:13:45.988Z,92.07
2023-05-03T00:16:31.195Z,91.78
2023-05-03T00:19:30.536Z,91.59
2023-05-03T00:22:16.396Z,91.42
2023-05-03T00:25:01.993Z,91.30
2023-05-03T00:27:47.016Z,91.50
2023-05-03T00:30:32.446Z,91.66
2023-05-03T00:33:17.829Z,91.18
2023-05-03T00:36:14.152Z,91.46
2023-05-03T00:38:59.428Z,91.41
2023-05-03T00:41:44.884Z,91.53
2023-05-03T00:44:30.669Z,92.63
2023-05-03T00:47:16.722Z,92.58
2023-05-03T00:50:02.743Z,94.18
2023-05-03T00:52:48.608Z,94.07
2023-05-03T00:55:34.745Z,93.63
2023-05-03T00:58:21.626Z,93.53
2023-05-03T01:01:07.776Z,93.52
2023-05-03T01:03:53.365Z,93.24
2023-05-03T01:06:38.675Z,93.19
2023-05-03T01:09:43.183Z,93.38
2023-05-03T01:12:40.908Z,93.11
2023-05-03T01:15:52.519Z,92.81
2023-05-03T01:18:40.232Z,92.85
2023-05-03T01:21:26.071Z,92.84
2023-05-03T01:24:20.126Z,93.03
2023-05-03T01:27:05.444Z,93.03
2023-05-03T01:29:51.302Z,93.17
2023-05-03T01:33:07.216Z,93.48
2023-05-03T01:35:58.631Z,94.38
2023-05-03T01:38:44.349Z,94.47
2023-05-03T01:41:30.828Z,94.61
2023-05-03T01:44:16.575Z,95.12
2023-05-03T01:47:02.157Z,95.02
2023-05-03T01:49:47.098Z,95.04
2023-05-03T01:52:32.650Z,96.04
2023-05-03T01:55:17.772Z,96.61
2023-05-03T01:58:03.232Z,96.48
2023-05-03T02:00:48.869Z,96.19
2023-05-03T02:03:34.616Z,96.29
2023-05-03T02:06:19.698Z,96.36
2023-05-03T02:09:04.960Z,95.60
2023-05-03T02:11:50.338Z,94.75
2023-05-03T02:14:35.845Z,93.92
2023-05-03T02:17:21.151Z,94.02
2023-05-03T02:20:09.805Z,94.22
2023-05-03T02:22:55.069Z,94.08
2023-05-03T02:25:41.508Z,93.83
2023-05-03T02:28:26.888Z,93.70
2023-05-03T02:31:13.602Z,93.27
2023-05-03T02:33:59.052Z,93.00
2023-05-03T02:36:44.032Z,93.35
2023-05-03T02:39:29.303Z,93.03
2023-05-03T02:42:14.714Z,92.89
2023-05-03T02:45:00.022Z,92.55
2023-05-03T02:47:45.525Z,92.27
2023-05-03T02:50:31.181Z,92.28
2023-05-03T02:53:16.544Z,91.91
2023-05-03T02:56:01.573Z,91.55
2023-05-03T02:58:46.792Z,91.22
2023-05-03T03:01:33.977Z,91.46
2023-05-03T03:04:19.840Z,91.40
2023-05-03T03:07:05.327Z,91.47
2023-05-03T03:09:50.497Z,90.85
2023-05-03T03:12:39.057Z,91.04
2023-05-03T03:15:24.398Z,91.32
2023-05-03T03:18:09.880Z,91.85
2023-05-03T03:20:54.982Z,92.35
2023-05-03T03:23:40.252Z,92.11
2023-05-03T03:26:26.213Z,92.46
2023-05-03T03:29:11.395Z,92.45
2023-05-03T03:31:57.406Z,91.76
2023-05-03T03:34:42.568Z,91.37
2023-05-03T03:37:27.993Z,91.40
2023-05-03T03:40:13.604Z,91.12
2023-05-03T03:42:58.858Z,91.15
2023-05-03T03:45:43.969Z,91.32
2023-05-03T03:48:29.272Z,91.26
2023-05-03T03:51:14.824Z,91.97
2023-05-03T03:54:00.247Z,91.84
2023-05-03T03:56:45.522Z,91.99
2023-05-03T03:59:30.900Z,92.11
2023-05-03T04:02:16.019Z,91.54
2023-05-03T04:05:01.386Z,91.92
2023-05-03T04:07:46.776Z,91.61
2023-05-03T04:10:32.200Z,92.14
2023-05-03T04:13:17.368Z,92.25
2023-05-03T04:16:04.609Z,92.11
2023-05-03T04:18:50.148Z,91.88
2023-05-03T04:21:35.401Z,91.71
2023-05-03T04:24:21.238Z,92.04
2023-05-03T04:27:06.821Z,92.17
2023-05-03T04:29:51.851Z,92.38
2023-05-03T04:32:37.563Z,92.08
2023-05-03T04:35:23.004Z,92.63
2023-05-03T04:38:09.805Z,93.30
2023-05-03T04:40:55.050Z,93.76
2023-05-03T04:43:40.747Z,93.75
2023-05-03T04:46:25.957Z,94.25
2023-05-03T04:49:11.146Z,94.77
2023-05-03T04:51:56.576Z,94.70
2023-05-03T04:54:41.803Z,93.84
2023-05-03T04:57:27.265Z,94.13
2023-05-03T05:00:13.738Z,93.98
2023-05-03T05:02:59.133Z,94.75
2023-05-03T05:05:44.246Z,94.61
2023-05-03T05:08:29.568Z,94.40
2023-05-03T05:11:14.968Z,94.16
2023-05-03T05:14:00.374Z,94.04
2023-05-03T05:16:45.995Z,94.30
2023-05-03T05:19:31.693Z,94.67
2023-05-03T05:22:16.913Z,94.38
2023-05-03T05:25:02.329Z,94.38
2023-05-03T05:27:47.674Z,94.29
2023-05-03T05:30:33.090Z,94.30
2023-05-03T05:33:19.359Z,94.32
2023-05-03T05:36:06.197Z,94.48
2023-05-03T05:38:51.531Z,94.83
2023-05-03T05:41:36.796Z,94.52
2023-05-03T05:44:22.122Z,94.89
2023-05-03T05:47:08.897Z,95.01
2023-05-03T05:49:54.350Z,95.33
2023-05-03T05:52:39.687Z,95.91
2023-05-03T05:55:25.220Z,96.20
2023-05-03T05:58:12.880Z,96.25
2023-05-03T06:01:01.294Z,96.07
2023-05-03T06:03:46.799Z,95.46
2023-05-03T06:06:32.456Z,95.72
2023-05-03T06:12:08.463Z,96.09
2023-05-03T06:15:02.276Z,96.25
2023-05-03T06:17:48.507Z,96.51
2023-05-03T06:20:33.828Z,96.15
2023-05-03T06:23:19.187Z,96.03
2023-05-03T06:26:04.426Z,96.08
2023-05-03T06:28:50.554Z,96.39
2023-05-03T06:31:35.781Z,96.08
2023-05-03T06:34:21.807Z,95.76
2023-05-03T06:37:06.948Z,95.93
2023-05-03T06:39:52.390Z,97.25
2023-05-03T06:42:37.691Z,97.35
2023-05-03T06:45:23.088Z,97.02
2023-05-03T06:48:08.783Z,96.87
2023-05-03T06:50:54.908Z,96.79
2023-05-03T06:53:39.982Z,96.91
2023-05-03T06:56:25.035Z,97.21
2023-05-03T06:59:10.559Z,97.32
2023-05-03T07:01:55.629Z,97.78
2023-05-03T07:04:40.959Z,98.18
2023-05-03T07:07:25.951Z,98.85
2023-05-03T07:10:11.380Z,99.22
2023-05-03T07:12:57.317Z,99.23
2023-05-03T07:15:42.353Z,99.34
2023-05-03T07:18:27.770Z,99.42
2023-05-03T07:21:16.202Z,99.07
2023-05-03T07:24:01.819Z,99.04
2023-05-03T07:26:49.022Z,99.10
2023-05-03T07:29:34.709Z,99.00
2023-05-03T07:32:19.865Z,98.90
2023-05-03T07:35:05.965Z,98.39
2023-05-03T07:37:51.105Z,98.06
2023-05-03T07:40:37.112Z,98.82
2023-05-03T07:43:23.702Z,98.77
2023-05-03T07:46:08.939Z,99.05
2023-05-03T07:48:54.158Z,98.65
2023-05-03T07:51:39.798Z,98.42
2023-05-03T07:54:24.791Z,97.71
2023-05-03T07:57:10.027Z,97.64
2023-05-03T07:59:55.720Z,98.69
2023-05-03T08:02:41.343Z,98.48
2023-05-03T08:05:26.531Z,98.70
2023-05-03T08:08:12.150Z,99.03
2023-05-03T08:10:57.468Z,99.14
2023-05-03T08:13:42.789Z,98.95
2023-05-03T08:16:28.201Z,98.42
2023-05-03T08:19:13.468Z,98.30
2023-05-03T08:21:59.008Z,98.09
2023-05-03T08:24:44.326Z,98.48
2023-05-03T08:27:29.904Z,97.74
2023-05-03T08:30:15.618Z,97.24
2023-05-03T08:33:00.914Z,97.58
2023-05-03T08:35:48.659Z,97.78
2023-05-03T08:38:36.592Z,98.08
2023-05-03T08:41:28.563Z,99.52
2023-05-03T08:44:22.743Z,99.37
2023-05-03T08:47:08.289Z,99.17
2023-05-03T08:49:53.928Z,98.70
2023-05-03T08:52:43.519Z,99.39
2023-05-03T08:55:28.757Z,98.97
2023-05-03T08:58:14.541Z,98.98
2023-05-03T09:01:05.095Z,99.81
2023-05-03T09:03:51.840Z,100.00
2023-05-03T09:06:37.911Z,100.00
2023-05-03T09:09:32.373Z,100.00
2023-05-03T09:12:37.127Z,100.00
2023-05-03T09:15:22.402Z,100.00
2023-05-03T09:18:18.645Z,100.00
2023-05-03T09:21:03.881Z,100.00
2023-05-03T09:23:49.250Z,99.83
2023-05-03T09:26:37.436Z,99.37
2023-05-03T09:29:34.458Z,98.91
2023-05-03T09:32:20.548Z,99.25
2023-05-03T09:35:13.729Z,99.24
2023-05-03T09:37:59.628Z,99.06
2023-05-03T09:40:48.349Z,98.76
2023-05-03T09:43:35.792Z,98.54
2023-05-03T09:46:21.440Z,98.86
2023-05-03T09:49:06.865Z,99.40
2023-05-03T09:51:52.739Z,99.10
2023-05-03T09:54:38.924Z,99.61
2023-05-03T09:57:24.715Z,99.76
2023-05-03T10:00:11.066Z,99.64
2023-05-03T10:03:00.225Z,100.00
2023-05-03T10:05:51.347Z,100.00
2023-05-03T10:08:42.743Z,100.00
2023-05-03T10:11:28.022Z,100.00
2023-05-03T10:14:13.030Z,100.00
2023-05-03T10:17:01.215Z,100.00
2023-05-03T10:19:57.926Z,100.00
2023-05-03T10:23:08.228Z,100.00
2023-05-03T10:26:05.971Z,100.00
2023-05-03T10:28:51.352Z,100.00
2023-05-03T10:31:47.424Z,100.00
2023-05-03T10:34:35.048Z,100.00
2023-05-03T10:37:27.129Z,100.00
2023-05-03T10:40:15.181Z,100.00
2023-05-03T10:43:00.940Z,100.00
2023-05-03T10:45:47.825Z,100.00
2023-05-03T10:48:34.879Z,100.00
2023-05-03T10:51:38.913Z,100.00
2023-05-03T10:54:24.241Z,100.00
2023-05-03T10:57:10.290Z,100.00
2023-05-03T10:59:55.572Z,100.00
2023-05-03T11:03:07.356Z,100.00
2023-05-03T11:05:53.733Z,100.00
2023-05-03T11:08:39.017Z,100.00
2023-05-03T11:11:24.253Z,100.00
2023-05-03T11:14:10.411Z,100.00
2023-05-03T11:16:57.496Z,100.00
2023-05-03T11:19:44.447Z,100.00
2023-05-03T11:22:29.565Z,100.00
2023-05-03T11:25:15.501Z,100.00
2023-05-03T11:28:02.070Z,100.00
2023-05-03T11:30:47.536Z,100.00
2023-05-03T11:33:35.214Z,100.00
2023-05-03T11:36:20.483Z,100.00
2023-05-03T11:39:05.997Z,99.79
2023-05-03T11:42:04.543Z,100.00
2023-05-03T11:44:49.814Z,100.00
2023-05-03T11:47:37.341Z,100.00
2023-05-03T11:50:54.416Z,100.00
2023-05-03T11:53:41.607Z,100.00
2023-05-03T11:56:27.639Z,100.00
2023-05-03T11:59:13.037Z,100.00
2023-05-03T12:01:58.420Z,100.00
2023-05-03T12:04:45.569Z,100.00
2023-05-03T12:07:31.797Z,100.00
2023-05-03T12:10:22.929Z,100.00
2023-05-03T12:13:13.234Z,100.00
2023-05-03T12:16:10.945Z,100.00
2023-05-03T12:19:03.153Z,100.00
2023-05-03T12:24:39.389Z,100.00
2023-05-03T12:27:26.810Z,100.00
2023-05-03T12:30:17.507Z,100.00
2023-05-03T12:33:04.895Z,100.00
2023-05-03T12:35:53.543Z,100.00
2023-05-03T12:38:42.040Z,100.00
2023-05-03T12:42:04.743Z,100.00
2023-05-03T12:44:42.160Z,100.00
2023-05-03T12:47:29.119Z,100.00
2023-05-03T12:50:18.251Z,100.00
2023-05-03T12:53:08.570Z,100.00
2023-05-03T12:55:58.331Z,100.00
2023-05-03T12:59:07.623Z,100.00
2023-05-03T13:07:29.512Z,100.00
2023-05-03T13:13:04.115Z,100.00
2023-05-03T13:15:49.661Z,100.00
2023-05-03T13:18:34.706Z,100.00
2023-05-03T13:21:20.091Z,100.00
2023-05-03T13:24:05.780Z,100.00
2023-05-03T13:26:51.155Z,100.00
2023-05-03T13:29:36.487Z,100.00
2023-05-03T13:32:21.972Z,100.00
2023-05-03T13:35:09.564Z,100.00
2023-05-03T13:37:55.106Z,100.00
2023-05-03T13:40:40.175Z,100.00
2023-05-03T13:43:25.674Z,100.00
2023-05-03T13:46:11.392Z,100.00
2023-05-03T13:48:56.633Z,100.00
2023-05-03T13:51:42.068Z,100.00
2023-05-03T13:54:27.357Z,100.00
2023-05-03T13:57:13.036Z,100.00
2023-05-03T13:59:58.280Z,100.00
2023-05-03T14:02:43.493Z,100.00
2023-05-03T14:05:29.504Z,100.00
2023-05-03T14:08:16.921Z,100.00
2023-05-03T14:11:04.686Z,100.00
2023-05-03T14:13:57.113Z,100.00
2023-05-03T14:16:42.750Z,100.00
2023-05-03T14:19:29.458Z,100.00
2023-05-03T14:22:14.597Z,100.00
2023-05-03T14:24:59.629Z,100.00
2023-05-03T14:27:45.567Z,100.00
2023-05-03T14:30:31.883Z,100.00
2023-05-03T14:33:17.598Z,100.00
2023-05-03T14:36:03.761Z,100.00
2023-05-03T14:38:49.070Z,99.55
2023-05-03T14:41:34.582Z,100.00
2023-05-03T14:44:20.546Z,99.75
2023-05-03T14:47:07.299Z,99.83
2023-05-03T14:49:52.584Z,99.61
2023-05-03T14:52:38.044Z,99.33
2023-05-03T14:55:23.304Z,98.76
2023-05-03T14:58:10.122Z,99.03
2023-05-03T15:00:55.474Z,99.15
2023-05-03T15:03:40.742Z,98.96
2023-05-03T15:06:31.663Z,97.46
2023-05-03T15:09:16.624Z,97.24
2023-05-03T15:12:03.899Z,97.99
2023-05-03T15:14:49.184Z,98.59
2023-05-03T15:17:34.169Z,98.25
2023-05-03T15:20:19.435Z,98.26
2023-05-03T15:23:05.092Z,97.99
2023-05-03T15:25:50.152Z,97.61
2023-05-03T15:28:35.427Z,97.27
2023-05-03T15:31:22.430Z,97.39
2023-05-03T15:34:08.175Z,97.26
2023-05-03T15:36:53.675Z,96.95
2023-05-03T15:39:38.954Z,97.53
2023-05-03T15:42:24.465Z,97.87
2023-05-03T15:45:10.568Z,98.05
2023-05-03T15:47:58.766Z,97.54
2023-05-03T15:50:44.833Z,98.16
2023-05-03T15:53:30.072Z,98.06
2023-05-03T15:56:16.094Z,97.66
2023-05-03T15:59:01.252Z,97.65
2023-05-03T16:01:47.345Z,96.93
2023-05-03T16:04:33.033Z,96.53
2023-05-03T16:07:18.469Z,96.29
2023-05-03T16:10:04.050Z,96.66
2023-05-03T16:12:50.188Z,96.85
2023-05-03T16:15:35.529Z,96.61
2023-05-03T16:18:20.990Z,96.42
2023-05-03T16:21:06.147Z,95.92
2023-05-03T16:23:52.075Z,95.85
2023-05-03T16:26:37.473Z,96.28
2023-05-03T16:29:22.446Z,95.86
2023-05-03T16:32:09.859Z,96.64
2023-05-03T16:34:55.542Z,96.78
2023-05-03T16:37:41.931Z,96.50
2023-05-03T16:40:27.544Z,96.82
2023-05-03T16:43:13.017Z,96.55
2023-05-03T16:46:01.827Z,96.18
2023-05-03T16:48:47.504Z,96.26
2023-05-03T16:51:33.645Z,96.59
2023-05-03T16:54:19.213Z,96.92
2023-05-03T16:57:04.616Z,97.06
2023-05-03T16:59:49.946Z,96.96
2023-05-03T17:02:39.680Z,96.69
2023-05-03T17:05:26.216Z,96.88
2023-05-03T17:08:12.022Z,97.08
2023-05-03T17:10:57.956Z,97.36
2023-05-03T17:13:43.197Z,96.91
2023-05-03T17:16:28.808Z,97.02
2023-05-03T17:19:14.687Z,96.80
2023-05-03T17:21:59.976Z,96.79
2023-05-03T17:24:45.277Z,97.22
2023-05-03T17:27:30.549Z,97.15
2023-05-03T17:30:16.470Z,97.39
2023-05-03T17:33:02.846Z,97.50
2023-05-03T17:35:48.132Z,97.46
2023-05-03T17:38:34.596Z,97.62
2023-05-03T17:41:19.874Z,97.44
2023-05-03T17:44:05.403Z,97.62
2023-05-03T17:46:51.661Z,97.59
2023-05-03T17:49:37.849Z,97.82
2023-05-03T17:52:23.121Z,97.91
2023-05-03T17:55:11.094Z,97.68
2023-05-03T17:57:56.293Z,98.07
2023-05-03T18:00:41.696Z,98.09
2023-05-03T18:03:27.461Z,98.09
2023-05-03T18:06:13.701Z,98.47
2023-05-03T18:08:58.734Z,98.48
2023-05-03T18:11:45.187Z,98.49
2023-05-03T18:14:30.752Z,98.59
2023-05-03T18:17:16.313Z,98.61
2023-05-03T18:20:02.150Z,98.99
2023-05-03T18:22:47.614Z,98.80
2023-05-03T18:25:32.907Z,98.66
2023-05-03T18:28:20.953Z,98.28
2023-05-03T18:31:06.052Z,98.38
2023-05-03T18:33:51.666Z,98.69
2023-05-03T18:36:39.155Z,98.80
2023-05-03T18:39:24.617Z,98.44
2023-05-03T18:42:10.618Z,98.08
2023-05-03T18:44:59.289Z,97.88
2023-05-03T18:47:44.433Z,97.82
2023-05-03T18:50:29.847Z,97.80
2023-05-03T18:53:15.174Z,97.60
2023-05-03T18:56:04.729Z,97.79
2023-05-03T18:58:50.274Z,97.82
2023-05-03T19:01:35.802Z,97.78
2023-05-03T19:04:21.084Z,97.60
2023-05-03T19:07:07.566Z,97.75
2023-05-03T19:09:54.593Z,97.66
2023-05-03T19:12:41.845Z,97.70
2023-05-03T19:15:28.750Z,97.83
2023-05-03T19:18:16.025Z,98.01
2023-05-03T19:21:02.831Z,98.18
2023-05-03T19:23:50.470Z,98.44
2023-05-03T19:26:36.114Z,99.05
2023-05-03T19:29:21.220Z,98.77
2023-05-03T19:32:07.761Z,98.53
2023-05-03T19:34:52.780Z,98.52
2023-05-03T19:37:38.380Z,98.90
2023-05-03T19:40:25.444Z,99.10
2023-05-03T19:43:12.190Z,99.24
2023-05-03T19:45:57.489Z,99.18
2023-05-03T19:48:43.095Z,99.23
2023-05-03T19:51:28.885Z,98.94
2023-05-03T19:54:14.055Z,99.04
2023-05-03T19:57:06.255Z,99.08
2023-05-03T19:59:51.622Z,99.42
2023-05-03T20:02:37.440Z,99.29
2023-05-03T20:05:22.954Z,99.11
2023-05-03T20:08:08.742Z,99.28
2023-05-03T20:10:55.691Z,99.60
2023-05-03T20:13:41.873Z,99.64
2023-05-03T20:16:32.382Z,99.37
2023-05-03T20:19:18.151Z,99.30
2023-05-03T20:22:03.545Z,99.22
2023-05-03T20:24:50.609Z,99.05
2023-05-03T20:27:37.149Z,98.78
2023-05-03T20:30:22.716Z,98.75
2023-05-03T20:33:08.195Z,98.27
2023-05-03T20:35:54.279Z,98.15
2023-05-03T20:38:39.469Z,97.84
2023-05-03T20:41:25.006Z,97.69
2023-05-03T20:44:10.104Z,98.10
2023-05-03T20:46:55.412Z,97.95
2023-05-03T20:49:40.754Z,98.25
2023-05-03T20:52:26.175Z,98.29
2023-05-03T20:55:11.837Z,98.43
2023-05-03T20:57:57.004Z,98.56
2023-05-03T21:00:42.398Z,98.49
2023-05-03T21:03:28.045Z,98.89
2023-05-03T21:06:13.554Z,99.60
2023-05-03T21:08:58.814Z,99.92
2023-05-03T21:11:44.495Z,100.00
2023-05-03T21:14:29.706Z,100.00
2023-05-03T21:17:15.266Z,100.00
2023-05-03T21:20:00.504Z,100.00
2023-05-03T21:22:45.950Z,100.00
2023-05-03T21:25:31.521Z,100.00
2023-05-03T21:28:17.285Z,100.00
2023-05-03T21:31:02.614Z,100.00
2023-05-03T21:33:47.853Z,100.00
2023-05-03T21:36:33.617Z,100.00
2023-05-03T21:39:20.615Z,100.00
2023-05-03T21:42:06.525Z,100.00
2023-05-03T21:44:51.683Z,100.00
2023-05-03T21:47:37.125Z,99.27
2023-05-03T21:50:23.637Z,99.38
2023-05-03T21:53:09.162Z,98.93
2023-05-03T21:55:54.428Z,98.96
2023-05-03T21:58:41.098Z,98.53
2023-05-03T22:01:26.205Z,98.40
2023-05-03T22:04:11.593Z,98.29
2023-05-03T22:06:57.416Z,98.22
2023-05-03T22:09:47.502Z,97.98
2023-05-03T22:12:33.337Z,97.79
2023-05-03T22:15:18.914Z,97.94
2023-05-03T22:18:05.022Z,98.19
2023-05-03T22:20:50.166Z,98.05
2023-05-03T22:23:35.486Z,98.31
2023-05-03T22:26:20.835Z,98.21
2023-05-03T22:29:06.047Z,98.39
2023-05-03T22:31:52.698Z,98.09
2023-05-03T22:34:38.134Z,98.00
2023-05-03T22:37:23.354Z,98.07
2023-05-03T22:40:12.020Z,98.02
2023-05-03T22:42:57.068Z,97.93
2023-05-03T22:45:43.184Z,98.00
2023-05-03T22:48:31.644Z,98.00
2023-05-03T22:51:17.123Z,97.78
2023-05-03T22:54:02.625Z,97.79
2023-05-03T22:56:47.632Z,98.14
2023-05-03T22:59:32.956Z,98.17
2023-05-03T23:02:18.172Z,97.89
2023-05-03T23:05:03.697Z,98.37
2023-05-03T23:07:49.073Z,98.47
2023-05-03T23:10:34.957Z,98.91
2023-05-03T23:13:20.195Z,98.80
2023-05-03T23:16:06.406Z,98.73
2023-05-03T23:18:53.518Z,98.20
2023-05-03T23:21:40.146Z,98.26
2023-05-03T23:24:25.510Z,98.25
2023-05-03T23:27:12.549Z,98.84
2023-05-03T23:29:58.135Z,99.45
2023-05-03T23:32:46.143Z,99.32
2023-05-03T23:35:32.010Z,99.29
2023-05-03T23:38:17.333Z,99.13
2023-05-03T23:41:02.790Z,98.71
2023-05-03T23:43:48.179Z,98.64
2023-05-03T23:46:33.905Z,98.37
2023-05-03T23:49:20.068Z,98.36
2023-05-03T23:52:05.092Z,98.51
2023-05-03T23:54:50.418Z,98.22
2023-05-03T23:57:36.045Z,98.39
